Time;durP1;ratioP1;P1;durP2;ratioP2;P2;SDS_P1;SDS_P2;PMS_P1;PMS_P2;Temp;Humidity;BMP_temperature;BMP_pressure;BME280_temperature;BME280_humidity;BME280_pressure;Samples;Min_cycle;Max_cycle;Signal;HPM_P1;HPM_P2
2023/04/24 00:01:26;;;;;;;2.00;1.77;;;11.30;99.90;;;;;;7406055;19;19922;-75
2023/04/24 00:03:55;;;;;;;1.70;1.50;;;11.20;99.90;;;;;;7405980;19;19933;-75
2023/04/24 00:06:32;;;;;;;2.13;1.70;;;11.10;99.90;;;;;;7405595;19;19956;-75
2023/04/24 00:09:02;;;;;;;1.60;1.50;;;10.90;99.90;;;;;;7410569;19;19929;-75
2023/04/24 00:11:34;;;;;;;1.25;0.95;;;11.00;99.90;;;;;;7404126;19;19914;-75
2023/04/24 00:14:03;;;;;;;1.23;0.70;;;11.00;99.90;;;;;;7405234;19;19936;-75
2023/04/24 00:16:32;;;;;;;0.50;0.40;;;10.80;99.90;;;;;;7402156;19;19930;-75
2023/04/24 00:19:01;;;;;;;0.20;0.20;;;10.80;99.90;;;;;;7404372;19;20387;-75
2023/04/24 00:21:32;;;;;;;0.30;0.20;;;10.70;99.90;;;;;;7402101;19;19923;-75
2023/04/24 00:24:01;;;;;;;0.20;0.20;;;10.50;99.90;;;;;;7401899;19;19914;-75
2023/04/24 00:26:32;;;;;;;0.28;0.20;;;10.60;99.90;;;;;;7403038;19;19922;-76
2023/04/24 00:29:01;;;;;;;0.30;0.20;;;10.50;99.90;;;;;;7404604;19;19929;-75
2023/04/24 00:31:30;;;;;;;0.63;0.20;;;10.40;99.90;;;;;;7404679;19;19945;-75
2023/04/24 00:34:00;;;;;;;0.70;0.40;;;10.30;99.90;;;;;;7400938;19;19985;-74
2023/04/24 00:36:30;;;;;;;0.32;0.25;;;9.10;99.90;;;;;;7403239;19;19914;-75
2023/04/24 00:38:59;;;;;;;0.80;0.20;;;10.20;99.90;;;;;;7402932;19;20591;-74
2023/04/24 00:41:28;;;;;;;0.50;0.30;;;10.00;99.90;;;;;;7400585;19;19921;-74
2023/04/24 00:44:00;;;;;;;0.30;0.30;;;10.10;99.90;;;;;;7401807;19;19937;-74
2023/04/24 00:46:29;;;;;;;1.75;0.38;;;10.00;99.90;;;;;;7402336;19;19942;-74
2023/04/24 00:48:59;;;;;;;0.70;0.40;;;10.10;99.90;;;;;;7401783;19;20275;-74
2023/04/24 00:51:28;;;;;;;0.50;0.50;;;10.00;99.90;;;;;;7399462;19;19914;-74
2023/04/24 00:53:57;;;;;;;0.63;0.40;;;9.90;99.90;;;;;;7401452;19;19922;-74
2023/04/24 00:56:26;;;;;;;1.27;0.60;;;9.90;99.90;;;;;;7400462;19;19926;-74
2023/04/24 00:58:55;;;;;;;0.50;0.50;;;9.80;99.90;;;;;;7400725;19;19923;-74
2023/04/24 01:01:27;;;;;;;1.38;0.60;;;9.90;99.90;;;;;;7402394;19;19918;-74
2023/04/24 01:03:56;;;;;;;;;;;10.00;99.90;;;;;;7405834;19;19941;-74
2023/04/24 01:06:26;;;;;;;0.50;0.50;;;10.00;99.90;;;;;;7400959;19;19953;-75
2023/04/24 01:08:56;;;;;;;0.80;0.70;;;10.00;99.90;;;;;;7397728;19;19919;-75
2023/04/24 01:11:25;;;;;;;0.80;0.60;;;9.90;99.90;;;;;;7402568;19;19922;-74
2023/04/24 01:13:54;;;;;;;0.70;0.70;;;9.90;99.90;;;;;;7401477;19;20364;-74
2023/04/24 01:16:26;;;;;;;0.93;0.82;;;10.00;99.90;;;;;;7400149;19;19926;-75
2023/04/24 01:18:55;;;;;;;1.63;0.90;;;9.90;99.90;;;;;;7399359;19;19933;-75
2023/04/24 01:21:30;;;;;;;1.00;0.90;;;9.90;99.90;;;;;;7401037;19;19926;-75
2023/04/24 01:24:01;;;;;;;2.45;0.90;;;9.70;99.90;;;;;;7400609;19;19926;-75
2023/04/24 01:26:30;;;;;;;1.00;0.90;;;9.80;99.90;;;;;;7403648;19;20333;-74
2023/04/24 01:28:59;;;;;;;1.38;0.80;;;9.70;99.90;;;;;;7401895;19;19927;-74
2023/04/24 01:31:29;;;;;;;1.00;0.90;;;9.90;99.90;;;;;;7400515;19;19918;-74
2023/04/24 01:33:58;;;;;;;1.33;1.23;;;9.70;99.90;;;;;;7401704;19;19922;-75
2023/04/24 01:36:29;;;;;;;1.10;0.90;;;9.70;99.90;;;;;;7402093;19;20325;-75
2023/04/24 01:39:01;;;;;;;2.28;1.23;;;9.40;99.90;;;;;;7399286;19;19946;-75
2023/04/24 01:41:30;;;;;;;1.33;1.13;;;9.30;99.90;;;;;;7400832;19;20377;-74
2023/04/24 01:44:00;;;;;;;1.27;1.17;;;9.30;99.90;;;;;;7401139;19;19922;-75
2023/04/24 01:46:30;;;;;;;1.55;1.00;;;9.50;99.90;;;;;;7399973;19;20414;-74
2023/04/24 01:49:00;;;;;;;1.35;1.00;;;9.30;99.90;;;;;;7402003;19;19926;-75
2023/04/24 01:51:29;;;;;;;1.00;0.85;;;9.20;99.90;;;;;;7402124;19;20363;-74
2023/04/24 01:54:01;;;;;;;0.93;0.80;;;9.20;99.90;;;;;;7400403;19;19986;-74
2023/04/24 01:56:32;;;;;;;1.77;1.00;;;9.20;99.90;;;;;;7400978;19;19938;-74
2023/04/24 01:59:02;;;;;;;1.27;1.10;;;9.20;99.90;;;;;;7399287;19;19922;-75
2023/04/24 02:01:37;;;;;;;1.05;0.90;;;9.10;99.90;;;;;;7400492;19;19921;-75
2023/04/24 02:04:07;;;;;;;0.77;0.70;;;9.20;99.90;;;;;;7402428;19;19950;-75
2023/04/24 02:06:36;;;;;;;1.25;1.00;;;9.20;99.90;;;;;;7399082;19;19933;-74
2023/04/24 02:09:07;;;;;;;1.00;0.90;;;9.20;99.90;;;;;;7401193;19;19918;-75
2023/04/24 02:11:36;;;;;;;0.90;0.68;;;9.10;99.90;;;;;;7401515;19;19935;-74
2023/04/24 02:14:05;;;;;;;0.85;0.80;;;9.30;99.90;;;;;;7399899;19;19918;-74
2023/04/24 02:16:35;;;;;;;1.35;0.90;;;9.20;99.90;;;;;;7401159;19;19929;-74
2023/04/24 02:19:04;;;;;;;0.80;0.80;;;9.30;99.90;;;;;;7400645;19;19936;-74
2023/04/24 02:21:33;;;;;;;0.80;0.80;;;9.30;99.90;;;;;;7402019;19;19922;-74
2023/04/24 02:24:02;;;;;;;0.82;0.80;;;9.30;99.90;;;;;;7398388;19;19923;-75
2023/04/24 02:26:34;;;;;;;0.85;0.70;;;9.20;99.90;;;;;;7400630;19;20352;-74
2023/04/24 02:29:03;;;;;;;0.70;0.70;;;9.20;99.90;;;;;;7401773;19;19931;-74
2023/04/24 02:31:32;;;;;;;1.30;0.85;;;9.10;99.90;;;;;;7398843;19;19919;-74
2023/04/24 02:34:01;;;;;;;1.05;0.95;;;9.00;99.90;;;;;;7399859;19;20294;-75
2023/04/24 02:36:30;;;;;;;0.88;0.88;;;9.10;99.90;;;;;;7399483;19;20028;-74
2023/04/24 02:38:59;;;;;;;1.42;1.33;;;9.10;99.90;;;;;;7398277;19;19939;-74
2023/04/24 02:41:31;;;;;;;2.08;1.63;;;8.90;99.90;;;;;;7401064;19;19927;-74
2023/04/24 02:44:02;;;;;;;1.67;1.58;;;8.90;99.90;;;;;;7401920;19;19938;-74
2023/04/24 02:46:31;;;;;;;2.50;2.30;;;8.80;99.90;;;;;;7399107;19;19918;-74
2023/04/24 02:49:00;;;;;;;1.98;1.88;;;8.90;99.90;;;;;;7399019;19;19945;-74
2023/04/24 02:51:29;;;;;;;2.30;2.10;;;8.90;99.90;;;;;;7400593;19;20320;-75
2023/04/24 02:53:58;;;;;;;3.08;2.78;;;10.00;99.90;;;;;;7399419;19;19978;-75
2023/04/24 02:56:27;;;;;;;2.78;2.58;;;9.10;99.90;;;;;;7397400;19;19933;-74
2023/04/24 02:58:56;;;;;;;3.65;2.38;;;9.00;99.90;;;;;;7397951;19;19926;-74
2023/04/24 03:01:27;;;;;;;2.75;2.55;;;9.00;99.90;;;;;;7400659;19;19930;-74
2023/04/24 03:03:56;;;;;;;2.20;2.00;;;9.00;99.90;;;;;;7397259;19;19922;-74
2023/04/24 03:06:26;;;;;;;2.60;2.40;;;9.10;99.90;;;;;;7398545;19;19926;-74
2023/04/24 03:08:55;;;;;;;2.63;2.40;;;9.00;99.90;;;;;;7397800;19;19932;-74
2023/04/24 03:11:25;;;;;;;2.97;2.67;;;8.90;99.90;;;;;;7398768;19;19954;-74
2023/04/24 03:13:53;;;;;;;2.60;2.22;;;8.90;99.90;;;;;;7398051;19;20249;-74
2023/04/24 03:16:22;;;;;;;2.97;2.63;;;9.00;99.90;;;;;;7398581;19;19923;-75
2023/04/24 03:18:55;;;;;;;2.63;2.38;;;9.00;99.90;;;;;;7397758;19;19922;-74
2023/04/24 03:21:24;;;;;;;2.50;2.30;;;8.90;99.90;;;;;;7400075;19;19950;-75
2023/04/24 03:23:52;;;;;;;3.13;2.38;;;9.00;99.90;;;;;;7397786;19;19939;-74
2023/04/24 03:26:21;;;;;;;3.05;2.60;;;8.90;99.90;;;;;;7396112;19;19918;-74
2023/04/24 03:28:50;;;;;;;3.17;2.65;;;8.90;99.90;;;;;;7399367;19;20265;-74
2023/04/24 03:31:20;;;;;;;2.40;2.08;;;9.10;99.90;;;;;;7399305;19;19942;-75
2023/04/24 03:33:49;;;;;;;3.17;2.65;;;8.80;99.90;;;;;;7399218;19;20290;-75
2023/04/24 03:36:21;;;;;;;3.20;2.90;;;8.80;99.90;;;;;;7398965;19;19926;-74
2023/04/24 03:38:50;;;;;;;;;;;8.90;99.90;;;;;;7398921;19;19985;-74
2023/04/24 03:41:19;;;;;;;4.03;2.80;;;8.90;99.90;;;;;;7397932;19;20281;-74
2023/04/24 03:43:48;;;;;;;3.33;2.80;;;8.80;99.90;;;;;;7398135;19;19914;-74
2023/04/24 03:46:17;;;;;;;3.55;3.25;;;8.90;99.90;;;;;;7396015;19;19926;-74
2023/04/24 03:48:45;;;;;;;3.03;2.70;;;8.80;99.90;;;;;;7396040;19;19918;-74
2023/04/24 03:51:14;;;;;;;4.25;2.90;;;10.90;99.90;;;;;;7399329;19;19930;-74
2023/04/24 03:53:46;;;;;;;2.60;2.40;;;9.10;99.90;;;;;;7397719;19;19919;-74
2023/04/24 03:56:15;;;;;;;4.50;3.65;;;8.90;99.90;;;;;;7397201;19;19921;-74
2023/04/24 03:58:44;;;;;;;2.97;2.67;;;8.80;99.90;;;;;;7399534;19;19911;-74
2023/04/24 04:01:13;;;;;;;2.65;2.40;;;8.80;99.90;;;;;;7397075;19;19926;-74
2023/04/24 04:03:42;;;;;;;5.20;3.03;;;8.70;99.90;;;;;;7397908;19;19918;-75
2023/04/24 04:06:12;;;;;;;3.03;2.72;;;8.70;99.90;;;;;;7398941;19;19919;-75
2023/04/24 04:08:41;;;;;;;4.03;3.15;;;7.60;99.90;;;;;;7401068;19;19933;-74
2023/04/24 04:11:13;;;;;;;3.10;2.70;;;8.80;99.90;;;;;;7398887;19;19922;-74
2023/04/24 04:13:42;;;;;;;3.60;2.95;;;8.70;99.90;;;;;;7405718;19;19926;-74
2023/04/24 04:16:11;;;;;;;3.58;3.00;;;8.70;99.90;;;;;;7402614;19;20363;-74
2023/04/24 04:18:41;;;;;;;4.20;3.13;;;8.70;99.90;;;;;;7404382;19;19918;-74
2023/04/24 04:21:11;;;;;;;4.00;3.33;;;8.80;99.90;;;;;;7399574;19;20011;-75
2023/04/24 04:23:39;;;;;;;3.35;3.03;;;8.70;99.90;;;;;;7401356;19;19934;-74
2023/04/24 04:26:08;;;;;;;3.80;3.00;;;10.00;99.90;;;;;;7405280;19;19938;-74
2023/04/24 04:28:40;;;;;;;3.45;2.97;;;8.80;99.90;;;;;;7403610;19;19933;-75
2023/04/24 04:31:10;;;;;;;;;;;8.60;99.90;;;;;;7405437;19;19997;-74
2023/04/24 04:33:39;;;;;;;2.10;1.83;;;8.70;99.90;;;;;;7405567;19;20356;-75
2023/04/24 04:36:08;;;;;;;3.17;2.85;;;8.70;99.90;;;;;;7404585;19;20333;-76
2023/04/24 04:38:37;;;;;;;2.95;2.67;;;8.40;99.90;;;;;;7404879;19;19922;-75
2023/04/24 04:41:07;;;;;;;3.05;2.65;;;8.60;99.90;;;;;;7400870;19;19959;-75
2023/04/24 04:43:36;;;;;;;3.13;2.65;;;8.50;99.90;;;;;;7404171;19;19933;-76
2023/04/24 04:46:08;;;;;;;3.40;2.90;;;8.80;99.90;;;;;;7401513;19;19919;-75
2023/04/24 04:48:37;;;;;;;3.83;2.97;;;8.60;99.90;;;;;;7397699;19;20015;-75
2023/04/24 04:51:07;;;;;;;3.30;3.00;;;8.60;99.90;;;;;;7400908;19;20014;-75
2023/04/24 04:53:36;;;;;;;3.42;2.72;;;8.80;99.90;;;;;;7401325;19;19930;-76
2023/04/24 04:56:05;;;;;;;2.78;2.58;;;8.70;99.90;;;;;;7398595;19;19950;-75
2023/04/24 04:58:34;;;;;;;3.75;3.00;;;8.70;99.90;;;;;;7403606;19;20252;-75
2023/04/24 05:01:03;;;;;;;3.38;2.78;;;8.60;99.90;;;;;;7400266;19;19915;-76
2023/04/24 05:03:35;;;;;;;3.13;2.60;;;8.70;99.90;;;;;;7404293;19;19928;-77
2023/04/24 05:06:04;;;;;;;3.70;3.10;;;8.50;99.90;;;;;;7405062;19;19915;-76
2023/04/24 05:08:33;;;;;;;2.70;2.50;;;8.60;99.90;;;;;;7399363;19;20341;-73
2023/04/24 05:11:02;;;;;;;3.88;2.90;;;8.50;99.90;;;;;;7404315;19;19961;-75
2023/04/24 05:13:31;;;;;;;4.15;3.10;;;8.60;99.90;;;;;;7398220;19;19950;-75
2023/04/24 05:16:00;;;;;;;2.92;2.53;;;8.50;99.90;;;;;;7399059;19;19914;-75
2023/04/24 05:18:30;;;;;;;4.28;3.55;;;8.70;99.90;;;;;;7399953;19;19948;-74
2023/04/24 05:21:01;;;;;;;3.65;3.28;;;8.80;99.90;;;;;;7402718;19;19929;-75
2023/04/24 05:23:31;;;;;;;3.63;3.00;;;8.60;99.90;;;;;;7402912;19;19918;-75
2023/04/24 05:26:00;;;;;;;4.00;3.17;;;8.70;99.90;;;;;;7401165;19;19926;-76
2023/04/24 05:28:29;;;;;;;5.43;3.08;;;8.60;99.90;;;;;;7399813;19;19925;-76
2023/04/24 05:30:59;;;;;;;4.15;3.30;;;8.60;99.90;;;;;;7402588;19;19922;-75
2023/04/24 05:33:28;;;;;;;3.83;2.85;;;8.70;99.90;;;;;;7402846;19;19938;-73
2023/04/24 05:35:57;;;;;;;4.68;2.88;;;10.60;99.90;;;;;;7398882;19;20301;-73
2023/04/24 05:38:29;;;;;;;5.45;3.00;;;8.70;99.90;;;;;;7398439;19;19915;-74
2023/04/24 05:40:58;;;;;;;3.38;2.83;;;8.50;99.90;;;;;;7402835;19;19925;-73
2023/04/24 05:43:26;;;;;;;3.53;2.85;;;8.50;99.90;;;;;;7401375;19;20002;-74
2023/04/24 05:45:56;;;;;;;3.92;2.97;;;8.50;99.90;;;;;;7399640;19;19922;-74
2023/04/24 05:48:25;;;;;;;3.33;2.60;;;8.50;99.90;;;;;;7398108;19;19935;-74
2023/04/24 05:50:53;;;;;;;3.13;2.58;;;8.60;99.90;;;;;;7400754;19;19926;-74
2023/04/24 05:53:22;;;;;;;2.92;2.47;;;8.50;99.90;;;;;;7396738;19;20336;-74
2023/04/24 05:55:54;;;;;;;3.65;2.10;;;8.50;99.90;;;;;;7399527;19;20277;-75
2023/04/24 05:58:24;;;;;;;2.85;2.22;;;8.60;99.90;;;;;;7401880;19;19918;-74
2023/04/24 06:00:53;;;;;;;2.90;2.38;;;8.50;99.90;;;;;;7397287;19;19929;-74
2023/04/24 06:03:22;;;;;;;3.03;2.47;;;8.50;99.90;;;;;;7400564;19;20263;-74
2023/04/24 06:05:52;;;;;;;2.00;1.60;;;8.60;99.90;;;;;;7400844;19;19922;-74
2023/04/24 06:08:21;;;;;;;4.80;2.53;;;8.50;99.90;;;;;;7398874;19;19922;-74
2023/04/24 06:10:50;;;;;;;3.30;2.30;;;8.60;99.90;;;;;;7400922;19;19929;-75
2023/04/24 06:13:22;;;;;;;3.28;2.42;;;9.80;99.90;;;;;;7400552;19;19918;-75
2023/04/24 06:15:50;;;;;;;3.55;2.40;;;8.50;99.90;;;;;;7397439;19;19922;-75
2023/04/24 06:18:20;;;;;;;2.70;2.10;;;8.50;99.90;;;;;;7399415;19;19930;-75
2023/04/24 06:20:49;;;;;;;4.10;2.50;;;8.50;99.90;;;;;;7399167;19;19923;-76
2023/04/24 06:23:18;;;;;;;3.00;2.35;;;8.30;99.90;;;;;;7398216;19;19922;-76
2023/04/24 06:25:48;;;;;;;3.50;2.53;;;8.90;99.90;;;;;;7399382;19;19939;-76
2023/04/24 06:28:16;;;;;;;2.78;2.25;;;8.70;99.90;;;;;;7396117;19;19923;-76
2023/04/24 06:30:48;;;;;;;3.85;2.70;;;8.50;99.90;;;;;;7399561;19;19922;-76
2023/04/24 06:33:18;;;;;;;3.25;2.42;;;8.50;99.90;;;;;;7393049;19;19926;-76
2023/04/24 06:35:47;;;;;;;4.32;3.05;;;8.60;99.90;;;;;;7401964;19;19998;-76
2023/04/24 06:38:16;;;;;;;3.20;2.35;;;8.60;99.90;;;;;;7398743;19;19926;-75
2023/04/24 06:40:45;;;;;;;7.07;2.17;;;8.50;99.90;;;;;;7400612;19;19937;-75
2023/04/24 06:43:14;;;;;;;4.28;2.42;;;8.70;99.90;;;;;;7393663;19;20317;-76
2023/04/24 06:45:43;;;;;;;3.00;2.65;;;8.70;99.90;;;;;;7398916;19;20023;-76
2023/04/24 06:48:15;;;;;;;3.60;2.42;;;8.50;99.90;;;;;;7399478;19;20325;-76
2023/04/24 06:50:44;;;;;;;3.38;2.50;;;8.70;99.90;;;;;;7400582;19;20352;-76
2023/04/24 06:53:14;;;;;;;2.85;1.92;;;9.20;99.90;;;;;;7398823;19;19929;-75
2023/04/24 06:55:44;;;;;;;2.88;2.15;;;8.50;99.90;;;;;;7397905;19;20326;-76
2023/04/24 06:58:14;;;;;;;2.33;1.95;;;8.60;99.90;;;;;;7396518;19;20332;-76
2023/04/24 07:00:43;;;;;;;2.92;2.22;;;8.90;99.90;;;;;;7395569;19;20348;-76
2023/04/24 07:03:15;;;;;;;3.35;1.90;;;8.70;99.90;;;;;;7397588;19;19930;-76
2023/04/24 07:05:46;;;;;;;2.55;1.80;;;8.70;99.90;;;;;;7396435;19;20640;-74
2023/04/24 07:08:16;;;;;;;2.08;1.70;;;8.70;99.90;;;;;;7397135;19;19930;-75
2023/04/24 07:10:45;;;;;;;3.15;1.80;;;8.60;99.90;;;;;;7397141;19;19915;-75
2023/04/24 07:13:14;;;;;;;3.72;2.22;;;8.60;99.90;;;;;;7398920;19;20420;-76
2023/04/24 07:15:43;;;;;;;2.45;2.00;;;8.70;99.90;;;;;;7397959;19;20024;-75
2023/04/24 07:18:15;;;;;;;3.35;2.00;;;8.80;99.90;;;;;;7395697;19;20389;-76
2023/04/24 07:20:44;;;;;;;3.78;1.92;;;8.80;99.90;;;;;;7395382;19;20393;-77
2023/04/24 07:23:13;;;;;;;2.45;1.90;;;8.70;99.90;;;;;;7396741;19;19943;-77
2023/04/24 07:25:42;;;;;;;1.70;1.30;;;8.60;99.90;;;;;;7396000;19;19931;-77
2023/04/24 07:28:13;;;;;;;3.03;1.48;;;8.90;99.90;;;;;;7397136;19;19918;-76
2023/04/24 07:30:43;;;;;;;2.55;1.77;;;8.90;99.90;;;;;;7395710;19;19970;-76
2023/04/24 07:33:14;;;;;;;2.38;1.80;;;8.90;99.90;;;;;;7401682;19;20332;-75
2023/04/24 07:35:43;;;;;;;2.30;1.70;;;8.90;99.90;;;;;;7397751;19;19942;-75
2023/04/24 07:38:12;;;;;;;2.28;1.95;;;9.00;99.90;;;;;;7392987;19;19918;-76
2023/04/24 07:40:41;;;;;;;1.73;1.48;;;9.20;99.90;;;;;;7398470;19;19932;-76
2023/04/24 07:43:10;;;;;;;2.75;1.45;;;9.20;99.90;;;;;;7398302;19;19954;-77
2023/04/24 07:45:39;;;;;;;2.33;1.85;;;9.10;99.90;;;;;;7405928;19;19926;-75
2023/04/24 07:48:08;;;;;;;2.17;1.70;;;9.10;99.90;;;;;;7404606;19;19926;-76
2023/04/24 07:50:40;;;;;;;2.08;1.42;;;9.00;99.90;;;;;;7402951;19;19918;-75
2023/04/24 07:53:09;;;;;;;3.92;2.05;;;9.00;99.90;;;;;;7403403;19;19915;-76
2023/04/24 07:55:38;;;;;;;4.32;2.10;;;9.10;99.90;;;;;;7400630;19;19914;-75
2023/04/24 07:58:07;;;;;;;2.92;2.10;;;9.30;99.90;;;;;;7402938;19;19922;-75
2023/04/24 08:00:39;;;;;;;2.60;2.08;;;9.20;99.90;;;;;;7403220;19;20355;-75
2023/04/24 08:03:12;;;;;;;2.55;2.22;;;9.90;99.90;;;;;;7400694;19;19919;-75
2023/04/24 08:05:44;;;;;;;2.85;1.85;;;9.20;99.90;;;;;;7403059;19;19937;-76
2023/04/24 08:08:13;;;;;;;1.73;1.58;;;10.00;99.90;;;;;;7403551;19;20352;-76
2023/04/24 08:10:42;;;;;;;4.30;2.00;;;9.50;99.90;;;;;;7402564;19;20937;-76
2023/04/24 08:13:11;;;;;;;4.45;1.52;;;9.40;99.90;;;;;;7400245;19;19922;-75
2023/04/24 08:15:40;;;;;;;2.30;1.70;;;9.50;99.90;;;;;;7400549;19;19922;-75
2023/04/24 08:18:11;;;;;;;3.10;1.70;;;9.60;99.90;;;;;;7407168;19;19978;-75
2023/04/24 08:20:43;;;;;;;2.53;1.48;;;9.50;99.90;;;;;;7400475;19;19919;-75
2023/04/24 08:23:12;;;;;;;2.88;1.67;;;9.40;99.90;;;;;;7400942;19;19915;-75
2023/04/24 08:25:41;;;;;;;3.08;2.20;;;9.50;99.90;;;;;;7401469;19;19925;-75
2023/04/24 08:28:12;;;;;;;2.30;1.70;;;9.50;99.90;;;;;;7401709;19;19918;-75
2023/04/24 08:30:41;;;;;;;2.67;1.88;;;9.50;99.90;;;;;;7401155;19;19924;-75
2023/04/24 08:33:10;;;;;;;1.98;1.80;;;9.70;99.90;;;;;;7402937;19;19919;-75
2023/04/24 08:35:39;;;;;;;2.38;1.60;;;9.70;99.90;;;;;;7405342;19;19918;-76
2023/04/24 08:38:11;;;;;;;2.22;1.65;;;9.70;99.90;;;;;;7404696;19;19929;-76
2023/04/24 08:40:40;;;;;;;2.10;1.30;;;9.60;99.90;;;;;;7403873;19;19918;-73
2023/04/24 08:43:10;;;;;;;2.50;1.65;;;9.60;99.90;;;;;;7401551;19;19942;-76
2023/04/24 08:45:39;;;;;;;2.55;0.98;;;9.60;99.90;;;;;;7402278;19;19919;-74
2023/04/24 08:48:09;;;;;;;2.40;1.55;;;9.40;99.90;;;;;;7402155;19;19918;-75
2023/04/24 08:50:41;;;;;;;4.28;1.58;;;9.20;99.90;;;;;;7402701;19;19926;-75
2023/04/24 08:53:13;;;;;;;2.42;1.45;;;9.30;99.90;;;;;;7402426;19;20376;-74
2023/04/24 08:55:43;;;;;;;3.70;1.75;;;9.10;99.90;;;;;;7400431;19;19915;-75
2023/04/24 08:58:13;;;;;;;3.28;1.67;;;9.00;99.90;;;;;;7404164;19;19990;-74
2023/04/24 09:00:46;;;;;;;4.10;1.88;;;9.10;99.90;;;;;;7401719;19;19982;-74
2023/04/24 09:03:17;;;;;;;6.38;2.05;;;9.00;99.90;;;;;;7399769;19;19933;-74
2023/04/24 09:05:50;;;;;;;3.63;2.42;;;9.10;99.90;;;;;;7399667;19;19935;-74
2023/04/24 09:08:22;;;;;;;4.95;2.38;;;9.00;99.90;;;;;;7401030;19;19983;-74
2023/04/24 09:10:51;;;;;;;5.30;2.65;;;8.90;99.90;;;;;;7402454;19;19935;-74
2023/04/24 09:13:21;;;;;;;6.45;2.60;;;9.00;99.90;;;;;;7398798;19;19918;-75
2023/04/24 09:15:52;;;;;;;4.82;2.60;;;9.00;99.90;;;;;;7399186;19;19914;-75
2023/04/24 09:18:21;;;;;;;4.93;3.28;;;8.90;99.90;;;;;;7399262;19;20280;-74
2023/04/24 09:21:05;;;;;;;6.80;4.22;;;9.00;99.90;;;;;;7401975;19;19925;-73
2023/04/24 09:23:37;;;;;;;9.70;5.00;;;8.90;99.90;;;;;;7397647;19;20276;-74
2023/04/24 09:26:07;;;;;;;15.25;6.85;;;9.00;99.90;;;;;;7404253;19;19929;-74
2023/04/24 09:28:39;;;;;;;16.27;7.32;;;8.70;99.90;;;;;;7398536;19;19954;-75
2023/04/24 09:31:11;;;;;;;13.10;7.22;;;8.70;99.90;;;;;;7401432;19;20285;-74
2023/04/24 09:33:40;;;;;;;17.83;7.68;;;8.60;99.90;;;;;;7401009;19;19940;-74
2023/04/24 09:36:09;;;;;;;18.38;9.75;;;8.60;99.90;;;;;;7401665;19;20341;-74
2023/04/24 09:38:41;;;;;;;13.20;7.13;;;8.70;99.90;;;;;;7399809;19;19926;-74
2023/04/24 09:41:16;;;;;;;12.60;6.03;;;9.90;99.90;;;;;;7400955;19;20321;-75
2023/04/24 09:43:45;;;;;;;15.75;7.20;;;8.70;99.90;;;;;;7399511;19;19914;-74
2023/04/24 09:46:14;;;;;;;12.75;6.82;;;8.60;99.90;;;;;;7399089;19;19926;-74
2023/04/24 09:48:43;;;;;;;17.13;7.32;;;8.50;99.90;;;;;;7401370;19;20380;-75
2023/04/24 09:51:12;;;;;;;11.85;6.85;;;8.40;99.90;;;;;;7399780;19;19918;-74
2023/04/24 09:53:49;;;;;;;14.18;5.97;;;8.40;99.90;;;;;;7399127;19;19921;-74
2023/04/24 09:56:20;;;;;;;10.93;5.45;;;8.30;99.90;;;;;;7399982;19;19918;-75
2023/04/24 09:58:49;;;;;;;13.13;6.63;;;8.30;99.90;;;;;;7400378;19;19933;-74
2023/04/24 10:01:18;;;;;;;12.27;6.35;;;8.30;99.90;;;;;;7398826;19;20431;-73
2023/04/24 10:03:48;;;;;;;10.85;5.78;;;8.30;99.90;;;;;;7397800;19;19918;-80
2023/04/24 10:06:18;;;;;;;13.98;6.90;;;8.40;99.90;;;;;;7397490;19;19922;-82
2023/04/24 10:08:51;;;;;;;14.73;6.80;;;8.40;99.90;;;;;;7404509;19;19925;-78
2023/04/24 10:11:21;;;;;;;14.43;6.35;;;8.50;99.90;;;;;;7402263;19;20315;-75
2023/04/24 10:13:50;;;;;;;10.13;5.45;;;8.40;99.90;;;;;;7402867;19;19922;-81
2023/04/24 10:16:19;;;;;;;11.00;5.07;;;8.20;99.90;;;;;;7398220;19;20550;-85
2023/04/24 10:18:51;;;;;;;9.27;4.35;;;8.40;99.90;;;;;;7404272;19;19922;-76
2023/04/24 10:21:20;;;;;;;11.02;5.75;;;8.20;99.90;;;;;;7396881;19;19922;-75
2023/04/24 10:23:53;;;;;;;11.65;5.60;;;8.20;99.90;;;;;;7398441;19;19933;-76
2023/04/24 10:26:22;;;;;;;10.23;5.65;;;8.40;99.90;;;;;;7396169;19;19922;-75
2023/04/24 10:28:51;;;;;;;10.35;6.30;;;8.20;99.90;;;;;;7396202;19;19914;-76
2023/04/24 10:31:21;;;;;;;10.80;6.15;;;8.30;99.90;;;;;;7395931;19;19925;-76
2023/04/24 10:33:54;;;;;;;14.50;8.30;;;8.30;99.90;;;;;;7398634;19;19926;-76
2023/04/24 10:36:27;;;;;;;11.85;5.40;;;8.30;99.90;;;;;;7396747;19;19927;-76
2023/04/24 10:39:01;;;;;;;12.30;7.13;;;8.20;99.90;;;;;;7398311;19;20261;-76
2023/04/24 10:41:33;;;;;;;12.43;5.43;;;8.30;99.90;;;;;;7396235;19;19922;-76
2023/04/24 10:44:08;;;;;;;9.25;5.38;;;8.30;99.90;;;;;;7398846;19;19939;-76
2023/04/24 10:46:37;;;;;;;12.82;5.07;;;8.30;99.90;;;;;;7399800;19;19918;-77
2023/04/24 10:49:09;;;;;;;7.75;4.10;;;8.30;99.90;;;;;;7396700;19;19922;-76
2023/04/24 10:51:52;;;;;;;7.38;3.67;;;8.10;99.90;;;;;;7396678;19;19918;-76
2023/04/24 10:54:38;;;;;;;8.50;3.70;;;8.10;99.90;;;;;;7394959;19;19922;-76
2023/04/24 10:57:30;;;;;;;8.13;3.30;;;8.00;99.90;;;;;;7396926;19;19938;-76
2023/04/24 11:00:18;;;;;;;8.55;3.95;;;8.00;99.90;;;;;;7397160;19;19925;-76
2023/04/24 11:02:52;;;;;;;9.10;3.33;;;7.80;99.90;;;;;;7397018;19;20329;-78
2023/04/24 11:05:23;;;;;;;8.23;3.28;;;8.10;99.90;;;;;;7398416;19;19943;-77
2023/04/24 11:08:14;;;;;;;7.22;3.20;;;8.60;99.90;;;;;;7400224;19;19926;-79
2023/04/24 11:10:47;;;;;;;6.30;3.40;;;8.20;99.90;;;;;;7400482;19;20277;-76
2023/04/24 11:13:18;;;;;;;5.80;3.28;;;8.10;99.90;;;;;;7399207;19;19922;-79
2023/04/24 11:15:54;;;;;;;7.88;3.80;;;8.30;99.90;;;;;;7400979;19;19942;-81
2023/04/24 11:18:25;;;;;;;6.65;3.30;;;8.20;99.90;;;;;;7399654;19;19922;-74
2023/04/24 11:20:57;;;;;;;7.47;2.47;;;8.40;99.90;;;;;;7401009;19;19919;-75
2023/04/24 11:23:26;;;;;;;4.32;2.30;;;8.40;99.90;;;;;;7400243;19;20558;-75
2023/04/24 11:26:19;;;;;;;3.97;1.60;;;8.40;99.90;;;;;;7395376;19;19946;-74
2023/04/24 11:28:50;;;;;;;5.65;2.38;;;8.30;99.90;;;;;;7399956;19;19926;-74
2023/04/24 11:31:37;;;;;;;6.68;2.53;;;8.30;99.90;;;;;;7398047;19;19922;-74
2023/04/24 11:34:11;;;;;;;5.68;2.58;;;8.50;99.90;;;;;;7400436;19;19971;-74
2023/04/24 11:36:41;;;;;;;7.00;2.05;;;8.10;99.90;;;;;;7399242;19;20034;-74
2023/04/24 11:39:10;;;;;;;5.03;1.85;;;8.60;99.90;;;;;;7397655;19;19926;-74
2023/04/24 11:41:41;;;;;;;6.47;2.30;;;8.60;99.90;;;;;;7396421;19;19931;-74
2023/04/24 11:44:12;;;;;;;4.28;2.00;;;8.60;99.90;;;;;;7397032;19;19919;-74
2023/04/24 11:46:41;;;;;;;3.10;1.50;;;8.60;99.90;;;;;;7397471;19;19946;-74
2023/04/24 11:49:10;;;;;;;4.65;1.63;;;8.90;99.90;;;;;;7398219;19;20336;-74
2023/04/24 11:51:39;;;;;;;5.97;1.63;;;8.70;99.90;;;;;;7397916;19;19922;-74
2023/04/24 11:54:11;;;;;;;3.80;1.42;;;8.80;99.90;;;;;;7397172;19;19919;-74
2023/04/24 11:56:47;;;;;;;6.25;1.90;;;8.80;99.90;;;;;;7396061;19;19936;-74
2023/04/24 11:59:16;;;;;;;5.25;1.30;;;8.60;99.90;;;;;;7399234;19;19929;-74
2023/04/24 12:01:48;;;;;;;2.75;1.52;;;8.70;99.90;;;;;;7396267;19;19938;-74
2023/04/24 12:04:19;;;;;;;3.72;1.73;;;8.80;99.90;;;;;;7398246;19;19923;-74
2023/04/24 12:07:03;;;;;;;7.35;1.95;;;8.70;99.90;;;;;;7397398;19;19923;-74
2023/04/24 12:09:45;;;;;;;4.53;1.42;;;8.80;99.90;;;;;;7397661;19;20460;-74
2023/04/24 12:12:19;;;;;;;3.85;1.67;;;8.80;99.90;;;;;;7397213;19;19928;-75
2023/04/24 12:14:52;;;;;;;6.63;1.67;;;8.80;99.90;;;;;;7396993;19;19962;-75
2023/04/24 12:17:26;;;;;;;6.07;1.45;;;8.80;99.90;;;;;;7396162;19;19926;-74
2023/04/24 12:19:55;;;;;;;4.95;1.23;;;8.90;99.90;;;;;;7397630;19;19929;-74
2023/04/24 12:22:24;;;;;;;5.88;1.40;;;8.70;99.90;;;;;;7395320;19;19929;-74
2023/04/24 12:25:00;;;;;;;7.10;2.08;;;8.90;99.90;;;;;;7397369;19;20443;-75
2023/04/24 12:27:34;;;;;;;4.78;0.95;;;8.80;99.90;;;;;;7397087;19;19915;-74
2023/04/24 12:30:06;;;;;;;4.43;1.27;;;8.70;99.90;;;;;;7401211;19;19938;-74
2023/04/24 12:32:35;;;;;;;9.48;1.75;;;8.80;99.90;;;;;;7403846;19;20337;-74
2023/04/24 12:35:08;;;;;;;2.42;1.20;;;8.70;99.90;;;;;;7402851;19;19918;-74
2023/04/24 12:37:37;;;;;;;4.15;1.08;;;8.80;99.90;;;;;;7393716;19;19926;-74
2023/04/24 12:40:09;;;;;;;5.10;1.40;;;8.70;99.90;;;;;;7403811;19;19926;-74
2023/04/24 12:42:44;;;;;;;;;;;8.80;99.90;;;;;;7403785;19;20268;-74
2023/04/24 12:45:14;;;;;;;3.88;1.63;;;8.80;99.90;;;;;;7403908;19;19984;-74
2023/04/24 12:47:44;;;;;;;3.75;1.35;;;8.90;99.90;;;;;;7403611;19;19922;-74
2023/04/24 12:50:15;;;;;;;3.75;1.60;;;8.90;99.90;;;;;;7403585;19;19918;-74
2023/04/24 12:52:45;;;;;;;9.93;1.50;;;8.90;99.90;;;;;;7403258;19;19992;-74
2023/04/24 12:55:14;;;;;;;3.63;1.30;;;8.70;99.90;;;;;;7402826;19;19930;-75
2023/04/24 12:57:46;;;;;;;6.22;1.52;;;8.80;99.90;;;;;;7400492;19;19914;-74
2023/04/24 13:00:16;;;;;;;4.68;1.10;;;8.70;99.90;;;;;;7404727;19;19926;-74
2023/04/24 13:02:45;;;;;;;3.58;1.00;;;8.50;99.90;;;;;;7403552;19;19923;-75
2023/04/24 13:05:14;;;;;;;5.25;1.50;;;9.10;99.90;;;;;;7404024;19;19935;-74
2023/04/24 13:07:42;;;;;;;5.25;1.88;;;8.30;99.90;;;;;;7403843;19;19922;-74
2023/04/24 13:10:13;;;;;;;9.02;1.55;;;8.20;99.90;;;;;;7403685;19;19940;-75
2023/04/24 13:12:46;;;;;;;4.20;0.90;;;8.20;99.90;;;;;;7402177;19;19922;-75